首页
METAR-TAF:

METAR-TAF

机场 :

Creech_Air_Force_Base

Indian Springs, 内华达州, 美国

纬度: 36-32N, 经度: 115-54W, 海拔: 952米

当前天气观测

该预报发布于1小时和6分钟前的02:58 UTC
风速4节,风向西
温度 28°C
湿度 8%
气压 1010 hPa
能見度: 16.1公里
天空无云

METAR: KINS 010258Z AUTO 28004KT 10SM CLR 28/M09 A2983 RMK AO2 SLP056 T02841091 52010 $

时间: 21:04 (04:04 UTC)

预报

该预报发布于23小时和19分钟前的04:45 UTC
预报有效从30日的 05点(UTC)到 31日的 11点(UTC)
风速6节,风向多变
能见度10公里或以上
少量云层高于16000英尺
多云层高于25000英尺
成为
从 30日的 14点(UTC)到 30日的 15点(UTC)
风速10节,风向东转东南,有时为18节阵风,在东转东南南转西南之间变化
能见度10公里或以上
少量云层高于25000英尺
成为
从 30日的 16点(UTC)到 30日的 17点(UTC)
风速15节,风向南转西南,有时为25节阵风,在东转东南南转西南之间变化
能见度10公里或以上
少量云层高于25000英尺
成为
从 30日的 19点(UTC)到 30日的 20点(UTC)
风速20节,风向南转西南,有时为40节阵风
能見度: 9000
散云层高于25000英尺
高吹尘
成为
从 31日的 01点(UTC)到 31日的 02点(UTC)
风速15节,风向西南,有时为25节阵风
能见度10公里或以上
多云层高于20000英尺
成为
从 31日的 05点(UTC)到 31日的 06点(UTC)
风速12节,风向南转西南
能見度: 0105
多云层高于20000英尺

TAF: KINS 300445Z 3005/3111 VRB06KT 9999 FEW160 BKN250 QNH2988INS BECMG 3014/3015 12010G18KT 9999 FEW250 QNH2986INS WND 120V210 BECMG 3016/3017 21015G25KT 9999 FEW250 510009 QNH2982INS WND 120V210 BECMG 3019/3020 21020G40KT 9000 BLDU SCT250 520009 QNH2979INS BECMG 3101/3102 22015G25KT 9999 NSW BKN200 510009 QNH2980INS BECMG 3105/3106 21012KT 9999 BKN200 QNH2986INS TX32/3022Z TN22/3012Z LAST NO AMDS AFT 3005 NEXT 0105

超过4000个机场的气象观测和天气预报(METAR&TAF报告)。

可查询的气象台以黄色和红色小点在地图上表示。

将鼠标移到小点上方,可查看气象台名称。

然后点击查看天气观测和预报。

如需切换地图:点击带黑十字的绿色按钮放大地图;点击带横线的绿色按钮缩小地图;或者点击绿色箭头查看邻近地区的地图。


METAR-TAF: